createdAt,value
2022-12-25T00:02:30.006Z,72.05
2022-12-25T00:05:27.492Z,72.09
2022-12-25T00:08:25.250Z,72.00
2022-12-25T00:11:22.681Z,72.05
2022-12-25T00:14:20.403Z,72.22
2022-12-25T00:17:18.151Z,72.28
2022-12-25T00:20:15.584Z,72.38
2022-12-25T00:23:13.292Z,72.45
2022-12-25T00:26:10.722Z,72.60
2022-12-25T00:29:08.359Z,72.60
2022-12-25T00:32:05.793Z,72.62
2022-12-25T00:35:03.566Z,72.70
2022-12-25T00:38:01.024Z,72.71
2022-12-25T00:40:58.756Z,72.77
2022-12-25T00:43:56.778Z,72.84
2022-12-25T00:46:54.335Z,72.88
2022-12-25T00:49:52.174Z,72.97
2022-12-25T00:52:49.607Z,72.98
2022-12-25T00:55:47.296Z,73.07
2022-12-25T00:58:44.730Z,73.19
2022-12-25T01:01:42.573Z,73.21
2022-12-25T01:04:40.443Z,73.35
2022-12-25T01:07:37.897Z,73.40
2022-12-25T01:10:35.591Z,73.46
2022-12-25T01:13:34.713Z,73.50
2022-12-25T01:16:32.454Z,73.53
2022-12-25T01:19:29.937Z,73.63
2022-12-25T01:22:27.701Z,73.76
2022-12-25T01:25:25.147Z,73.81
2022-12-25T01:28:22.761Z,73.80
2022-12-25T01:31:20.424Z,73.82
2022-12-25T01:34:17.874Z,73.79
2022-12-25T01:37:15.618Z,73.67
2022-12-25T01:40:13.062Z,73.51
2022-12-25T01:43:17.054Z,73.44
2022-12-25T01:46:16.516Z,73.50
2022-12-25T01:49:14.148Z,73.57
2022-12-25T01:52:11.791Z,73.56
2022-12-25T01:55:12.261Z,73.53
2022-12-25T01:58:10.025Z,73.50
2022-12-25T02:01:07.561Z,73.49
2022-12-25T02:04:05.282Z,73.46
2022-12-25T02:07:02.720Z,73.50
2022-12-25T02:10:00.460Z,73.50
2022-12-25T02:12:57.933Z,73.49
2022-12-25T02:15:55.618Z,73.46
2022-12-25T02:18:53.077Z,73.38
2022-12-25T02:21:50.715Z,73.37
2022-12-25T02:24:48.366Z,73.31
2022-12-25T02:27:45.828Z,73.28
2022-12-25T02:30:43.524Z,73.32
2022-12-25T02:33:59.012Z,73.32
2022-12-25T02:36:56.747Z,73.38
2022-12-25T02:40:00.451Z,73.40
2022-12-25T02:43:16.023Z,73.36
2022-12-25T02:46:31.408Z,73.32
2022-12-25T02:49:46.736Z,73.38
2022-12-25T02:53:02.171Z,73.43
2022-12-25T02:56:17.189Z,73.51
2022-12-25T02:59:32.498Z,73.60
2022-12-25T03:02:47.714Z,73.58
2022-12-25T03:06:03.153Z,73.62
2022-12-25T03:09:20.930Z,73.78
2022-12-25T03:12:18.374Z,73.88
2022-12-25T03:15:36.113Z,73.93
2022-12-25T03:18:33.895Z,73.99
2022-12-25T03:21:49.161Z,73.94
2022-12-25T03:25:04.578Z,74.05
2022-12-25T03:28:02.018Z,74.03
2022-12-25T03:31:15.124Z,74.09
2022-12-25T03:34:30.665Z,74.10
2022-12-25T03:37:45.084Z,74.14
2022-12-25T03:41:00.447Z,74.11
2022-12-25T03:44:30.502Z,74.17
2022-12-25T03:47:45.805Z,74.20
2022-12-25T03:51:01.164Z,74.22
2022-12-25T03:54:16.538Z,74.19
2022-12-25T03:57:31.792Z,74.20
2022-12-25T04:00:47.441Z,74.29
2022-12-25T04:04:02.372Z,74.39
2022-12-25T04:07:22.788Z,74.48
2022-12-25T04:10:37.988Z,74.57
2022-12-25T04:13:53.525Z,74.62
2022-12-25T04:17:08.887Z,74.72
2022-12-25T04:20:24.265Z,74.77
2022-12-25T04:23:39.597Z,74.87
2022-12-25T04:26:54.610Z,74.93
2022-12-25T04:30:10.325Z,74.99
2022-12-25T04:33:37.354Z,75.01
2022-12-25T04:36:34.790Z,75.06
2022-12-25T04:39:32.521Z,75.11
2022-12-25T04:42:29.954Z,75.20
2022-12-25T04:45:27.632Z,75.17
2022-12-25T04:48:25.062Z,75.11
2022-12-25T04:51:22.851Z,75.10
2022-12-25T04:54:20.296Z,75.09
2022-12-25T04:57:18.499Z,75.13
2022-12-25T05:00:16.339Z,75.12
2022-12-25T05:03:13.897Z,75.10
2022-12-25T05:06:11.680Z,75.13
2022-12-25T05:09:09.177Z,75.20
2022-12-25T05:12:06.844Z,75.29
2022-12-25T05:15:04.325Z,75.32
2022-12-25T05:18:02.032Z,75.35
2022-12-25T05:20:59.449Z,75.40
2022-12-25T05:23:57.164Z,75.38
2022-12-25T05:26:54.588Z,75.40
2022-12-25T05:29:52.296Z,75.40
2022-12-25T05:32:49.727Z,75.38
2022-12-25T05:35:47.535Z,75.39
2022-12-25T05:38:45.266Z,75.41
2022-12-25T05:41:42.704Z,75.50
2022-12-25T05:44:40.404Z,75.53
2022-12-25T05:47:37.825Z,75.58
2022-12-25T05:50:35.558Z,75.68
2022-12-25T05:53:33.115Z,75.72
2022-12-25T05:56:30.865Z,75.81
2022-12-25T05:59:28.598Z,75.85
2022-12-25T06:02:26.190Z,75.95
2022-12-25T06:05:24.125Z,76.06
2022-12-25T06:08:21.574Z,76.24
2022-12-25T06:11:19.286Z,76.31
2022-12-25T06:14:16.769Z,76.42
2022-12-25T06:17:14.503Z,76.51
2022-12-25T06:20:11.938Z,76.61
2022-12-25T06:23:09.683Z,76.68
2022-12-25T06:26:07.196Z,76.76
2022-12-25T06:29:04.966Z,76.90
2022-12-25T06:32:02.701Z,76.94
2022-12-25T06:35:00.310Z,77.04
2022-12-25T06:37:58.177Z,77.10
2022-12-25T06:40:55.626Z,77.10
2022-12-25T06:43:53.299Z,77.09
2022-12-25T06:46:51.071Z,77.13
2022-12-25T06:49:48.497Z,77.11
2022-12-25T06:52:46.273Z,77.17
2022-12-25T06:55:43.708Z,77.14
2022-12-25T06:58:41.393Z,77.10
2022-12-25T07:01:38.919Z,77.18
2022-12-25T07:04:38.473Z,77.18
2022-12-25T07:07:35.914Z,77.11
2022-12-25T07:10:33.615Z,77.10
2022-12-25T07:13:31.083Z,77.08
2022-12-25T07:16:28.827Z,77.06
2022-12-25T07:19:26.570Z,77.09
2022-12-25T07:22:23.964Z,77.10
2022-12-25T07:25:21.559Z,77.10
2022-12-25T07:28:18.984Z,77.14
2022-12-25T07:31:16.766Z,77.19
2022-12-25T07:34:14.294Z,77.10
2022-12-25T07:37:11.912Z,77.09
2022-12-25T07:40:09.331Z,77.02
2022-12-25T07:43:07.096Z,76.95
2022-12-25T07:46:05.140Z,76.81
2022-12-25T07:49:02.875Z,76.80
2022-12-25T07:52:00.310Z,76.79
2022-12-25T07:54:58.073Z,76.77
2022-12-25T07:57:55.491Z,76.74
2022-12-25T08:00:53.365Z,76.77
2022-12-25T08:03:51.692Z,76.71
2022-12-25T08:06:49.329Z,76.70
2022-12-25T08:09:46.957Z,76.77
2022-12-25T08:12:44.404Z,76.81
2022-12-25T08:15:42.235Z,76.80
2022-12-25T08:18:39.668Z,76.80
2022-12-25T08:21:37.450Z,76.80
2022-12-25T08:24:34.875Z,76.79
2022-12-25T08:27:32.677Z,76.80
2022-12-25T08:30:30.422Z,76.79
2022-12-25T08:33:28.318Z,76.67
2022-12-25T08:36:26.076Z,76.53
2022-12-25T08:39:23.527Z,76.53
2022-12-25T08:42:21.306Z,76.38
2022-12-25T08:45:18.735Z,76.25
2022-12-25T08:48:16.468Z,76.11
2022-12-25T08:51:15.634Z,76.11
2022-12-25T08:54:13.524Z,76.09
2022-12-25T08:57:10.951Z,75.93
2022-12-25T09:00:09.242Z,75.68
2022-12-25T09:03:06.763Z,75.46
2022-12-25T09:06:04.557Z,75.07
2022-12-25T09:09:02.252Z,74.76
2022-12-25T09:11:59.673Z,74.41
2022-12-25T09:14:57.467Z,74.12
2022-12-25T09:17:54.894Z,73.81
2022-12-25T09:20:52.682Z,73.72
2022-12-25T09:23:50.448Z,73.57
2022-12-25T09:26:47.867Z,73.15
2022-12-25T09:29:45.582Z,72.79
2022-12-25T09:32:43.032Z,72.64
2022-12-25T09:35:40.618Z,72.40
2022-12-25T09:38:38.067Z,72.18
2022-12-25T09:41:35.685Z,72.02
2022-12-25T09:44:33.139Z,71.84
2022-12-25T09:47:30.848Z,71.48
2022-12-25T09:50:28.250Z,71.38
2022-12-25T09:53:25.846Z,71.14
2022-12-25T09:56:25.861Z,70.96
2022-12-25T09:59:23.277Z,70.34
2022-12-25T10:02:21.330Z,70.18
2022-12-25T10:05:18.981Z,69.98
2022-12-25T10:08:16.601Z,69.73
2022-12-25T10:11:14.046Z,69.72
2022-12-25T10:14:11.776Z,69.64
2022-12-25T10:17:09.540Z,69.28
2022-12-25T10:20:08.348Z,69.08
2022-12-25T10:23:05.957Z,68.94
2022-12-25T10:26:04.328Z,68.68
2022-12-25T10:29:01.994Z,68.22
2022-12-25T10:31:59.446Z,67.78
2022-12-25T10:34:57.181Z,67.30
2022-12-25T10:37:55.444Z,67.37
2022-12-25T10:40:53.130Z,67.32
2022-12-25T10:43:50.765Z,67.34
2022-12-25T10:46:48.228Z,67.11
2022-12-25T10:49:45.910Z,67.01
2022-12-25T10:52:43.335Z,66.95
2022-12-25T10:55:40.948Z,66.83
2022-12-25T10:58:38.387Z,66.84
2022-12-25T11:01:36.185Z,66.67
2022-12-25T11:04:33.777Z,66.71
2022-12-25T11:07:31.216Z,66.63
2022-12-25T11:10:28.948Z,66.60
2022-12-25T11:13:27.075Z,66.59
2022-12-25T11:16:24.866Z,66.48
2022-12-25T11:19:22.427Z,66.43
2022-12-25T11:22:20.103Z,66.15
2022-12-25T11:25:17.611Z,66.10
2022-12-25T11:28:15.068Z,66.08
2022-12-25T11:31:13.106Z,66.02
2022-12-25T11:34:11.473Z,65.91
2022-12-25T11:37:09.464Z,65.93
2022-12-25T11:40:07.516Z,66.06
2022-12-25T11:43:08.191Z,66.10
2022-12-25T11:46:05.910Z,66.10
2022-12-25T11:49:03.719Z,66.23
2022-12-25T11:52:01.193Z,66.39
2022-12-25T11:54:58.925Z,66.47
2022-12-25T11:57:56.700Z,66.66
2022-12-25T12:00:54.175Z,66.72
2022-12-25T12:03:51.980Z,66.88
2022-12-25T12:06:49.454Z,66.91
2022-12-25T12:09:47.144Z,66.89
2022-12-25T12:12:48.840Z,66.92
2022-12-25T12:15:46.977Z,66.93
2022-12-25T12:18:50.337Z,66.99
2022-12-25T12:21:48.468Z,67.15
2022-12-25T12:24:46.117Z,67.20
2022-12-25T12:27:43.565Z,67.29
2022-12-25T12:30:41.116Z,67.36
2022-12-25T12:33:38.553Z,67.49
2022-12-25T12:36:37.003Z,67.61
2022-12-25T12:39:34.557Z,67.70
2022-12-25T12:42:32.333Z,67.67
2022-12-25T12:45:29.802Z,67.69
2022-12-25T12:48:27.656Z,67.64
2022-12-25T12:51:25.420Z,67.66
2022-12-25T12:54:22.869Z,67.61
2022-12-25T12:57:20.636Z,67.70
2022-12-25T13:00:18.091Z,67.78
2022-12-25T13:03:15.814Z,67.82
2022-12-25T13:06:13.288Z,67.81
2022-12-25T13:09:11.067Z,67.78
2022-12-25T13:12:08.519Z,67.74
2022-12-25T13:15:06.452Z,67.78
2022-12-25T13:18:03.868Z,67.89
2022-12-25T13:21:01.668Z,67.97
2022-12-25T13:23:59.451Z,68.15
2022-12-25T13:26:56.931Z,68.28
2022-12-25T13:29:54.657Z,68.47
2022-12-25T13:32:52.172Z,68.65
2022-12-25T13:35:49.795Z,68.83
2022-12-25T13:38:47.647Z,69.04
2022-12-25T13:42:02.699Z,69.18
2022-12-25T13:45:00.384Z,69.31
2022-12-25T13:47:57.947Z,69.49
2022-12-25T13:50:56.185Z,69.65
2022-12-25T13:53:53.625Z,69.80
2022-12-25T13:56:51.352Z,69.93
2022-12-25T13:59:49.110Z,70.06
2022-12-25T14:02:46.723Z,70.17
2022-12-25T14:05:44.427Z,70.31
2022-12-25T14:08:41.846Z,70.45
2022-12-25T14:11:39.565Z,70.63
2022-12-25T14:14:37.025Z,70.76
2022-12-25T14:17:34.628Z,70.91
2022-12-25T14:20:32.052Z,71.07
2022-12-25T14:23:29.821Z,71.23
2022-12-25T14:26:27.276Z,71.38
2022-12-25T14:29:28.303Z,71.54
2022-12-25T14:32:26.280Z,71.71
2022-12-25T14:35:23.992Z,71.88
2022-12-25T14:38:21.801Z,72.09
2022-12-25T14:41:25.770Z,72.22
2022-12-25T14:44:23.901Z,72.34
2022-12-25T14:47:21.604Z,72.52
2022-12-25T14:50:19.345Z,72.71
2022-12-25T14:53:16.776Z,72.80
2022-12-25T14:56:15.182Z,72.93
2022-12-25T14:59:12.614Z,73.13
2022-12-25T15:02:15.086Z,73.20
2022-12-25T15:05:16.630Z,73.20
2022-12-25T15:08:14.052Z,73.28
2022-12-25T15:11:11.803Z,73.43
2022-12-25T15:14:09.218Z,73.46
2022-12-25T15:17:06.977Z,73.51
2022-12-25T15:20:06.484Z,73.59
2022-12-25T15:23:19.328Z,73.56
2022-12-25T15:26:17.840Z,73.57
2022-12-25T15:29:15.271Z,73.50
2022-12-25T15:32:12.848Z,73.60
2022-12-25T15:35:10.262Z,73.64
2022-12-25T15:38:07.990Z,73.70
2022-12-25T15:41:05.407Z,73.70
2022-12-25T15:44:03.124Z,73.74
2022-12-25T15:47:00.526Z,73.82
2022-12-25T15:49:58.223Z,73.90
2022-12-25T15:52:55.623Z,73.97
2022-12-25T15:55:53.242Z,74.08
2022-12-25T15:58:50.875Z,74.18
2022-12-25T16:01:48.458Z,74.27
2022-12-25T16:04:46.235Z,74.31
2022-12-25T16:07:43.687Z,74.40
2022-12-25T16:10:41.356Z,74.44
2022-12-25T16:13:38.769Z,74.51
2022-12-25T16:16:36.589Z,74.62
2022-12-25T16:19:34.047Z,74.70
2022-12-25T16:22:32.329Z,74.72
2022-12-25T16:25:30.121Z,74.77
2022-12-25T16:28:27.538Z,74.81
2022-12-25T16:31:25.344Z,74.88
2022-12-25T16:34:22.911Z,74.90
2022-12-25T16:37:20.440Z,74.90
2022-12-25T16:40:18.077Z,74.91
2022-12-25T16:43:21.924Z,74.89
2022-12-25T16:46:21.525Z,74.97
2022-12-25T16:49:19.260Z,75.08
2022-12-25T16:52:16.984Z,75.09
2022-12-25T16:55:14.408Z,75.09
2022-12-25T16:58:12.215Z,75.18
2022-12-25T17:01:09.678Z,75.32
2022-12-25T17:04:07.404Z,75.47
2022-12-25T17:07:04.917Z,75.60
2022-12-25T17:10:03.979Z,75.81
2022-12-25T17:13:01.388Z,75.93
2022-12-25T17:15:59.250Z,75.98
2022-12-25T17:18:57.022Z,76.00
2022-12-25T17:21:54.853Z,75.99
2022-12-25T17:24:52.523Z,76.09
2022-12-25T17:27:49.956Z,76.18
2022-12-25T17:30:47.743Z,76.16
2022-12-25T17:33:45.177Z,76.19
2022-12-25T17:36:42.990Z,76.27
2022-12-25T17:39:40.754Z,76.23
2022-12-25T17:42:38.225Z,76.25
2022-12-25T17:45:35.997Z,76.28
2022-12-25T17:48:33.441Z,76.32
2022-12-25T17:51:31.233Z,76.39
2022-12-25T17:54:28.655Z,76.43
2022-12-25T17:57:26.435Z,76.50
2022-12-25T18:00:23.919Z,76.53
2022-12-25T18:03:21.715Z,76.63
2022-12-25T18:06:19.314Z,76.72
2022-12-25T18:09:16.995Z,76.73
2022-12-25T18:12:15.416Z,76.59
2022-12-25T18:15:13.025Z,76.56
2022-12-25T18:18:10.656Z,76.69
2022-12-25T18:21:08.107Z,76.69
2022-12-25T18:24:05.948Z,76.72
2022-12-25T18:27:03.392Z,76.83
2022-12-25T18:30:00.841Z,76.90
2022-12-25T18:32:58.281Z,76.98
2022-12-25T18:35:55.971Z,77.08
2022-12-25T18:38:53.662Z,77.10
2022-12-25T18:42:08.689Z,77.11
2022-12-25T18:45:06.476Z,77.20
2022-12-25T18:48:06.559Z,77.34
2022-12-25T18:51:04.398Z,77.43
2022-12-25T18:54:02.663Z,77.47
2022-12-25T18:57:05.404Z,77.50
2022-12-25T19:00:05.082Z,77.50
2022-12-25T19:03:03.802Z,77.53
2022-12-25T19:06:02.023Z,77.52
2022-12-25T19:09:00.263Z,77.59
2022-12-25T19:11:58.263Z,77.58
2022-12-25T19:14:55.690Z,77.64
2022-12-25T19:17:53.548Z,77.70
2022-12-25T19:20:51.073Z,77.81
2022-12-25T19:23:48.806Z,77.84
2022-12-25T19:26:46.247Z,77.97
2022-12-25T19:29:44.177Z,78.05
2022-12-25T19:32:41.712Z,78.10
2022-12-25T19:35:39.656Z,78.22
2022-12-25T19:38:37.262Z,78.30
2022-12-25T19:41:35.010Z,78.35
2022-12-25T19:44:32.438Z,78.47
2022-12-25T19:47:30.036Z,78.43
2022-12-25T19:50:28.849Z,78.49
2022-12-25T19:53:27.313Z,78.49
2022-12-25T19:56:25.092Z,78.57
2022-12-25T19:59:23.378Z,78.60
2022-12-25T20:02:21.486Z,78.70
2022-12-25T20:05:19.140Z,78.74
2022-12-25T20:08:17.891Z,78.71
2022-12-25T20:11:16.085Z,78.71
2022-12-25T20:14:13.770Z,78.72
2022-12-25T20:17:15.791Z,78.80
2022-12-25T20:20:14.717Z,78.81
2022-12-25T20:23:12.490Z,78.82
2022-12-25T20:26:11.351Z,78.97
2022-12-25T20:29:09.252Z,79.01
2022-12-25T20:32:07.336Z,79.07
2022-12-25T20:35:05.548Z,79.10
2022-12-25T20:38:03.223Z,79.11
2022-12-25T20:41:26.309Z,79.18
2022-12-25T20:44:19.761Z,79.18
2022-12-25T20:47:17.908Z,79.24
2022-12-25T20:50:15.597Z,79.34
2022-12-25T20:53:13.366Z,79.43
2022-12-25T20:56:11.123Z,79.53
2022-12-25T20:59:09.075Z,79.65
2022-12-25T21:02:07.032Z,79.73
2022-12-25T21:05:05.126Z,79.81
2022-12-25T21:08:02.872Z,79.80
2022-12-25T21:11:01.269Z,79.84
2022-12-25T21:13:59.064Z,79.90
2022-12-25T21:16:58.096Z,79.90
2022-12-25T21:19:55.593Z,79.90
2022-12-25T21:22:53.309Z,79.89
2022-12-25T21:25:51.068Z,79.83
2022-12-25T21:28:48.824Z,79.76
2022-12-25T21:32:00.128Z,79.66
2022-12-25T21:34:57.751Z,79.57
2022-12-25T21:37:55.188Z,79.56
2022-12-25T21:40:52.871Z,79.54
2022-12-25T21:43:50.860Z,79.49
2022-12-25T21:46:48.443Z,79.46
2022-12-25T21:50:04.442Z,79.45
2022-12-25T21:53:01.869Z,79.43
2022-12-25T21:55:59.663Z,79.38
2022-12-25T21:58:57.101Z,79.36
2022-12-25T22:01:54.962Z,79.33
2022-12-25T22:04:52.745Z,79.40
2022-12-25T22:07:50.209Z,79.47
2022-12-25T22:10:47.894Z,79.49
2022-12-25T22:13:59.186Z,79.37
2022-12-25T22:17:14.546Z,79.30
2022-12-25T22:20:12.322Z,79.31
2022-12-25T22:23:09.770Z,79.13
2022-12-25T22:26:07.524Z,79.10
2022-12-25T22:29:04.980Z,79.09
2022-12-25T22:32:02.765Z,79.11
2022-12-25T22:35:00.578Z,79.11
2022-12-25T22:37:58.287Z,79.15
2022-12-25T22:40:55.918Z,79.15
2022-12-25T22:44:16.616Z,79.15
2022-12-25T22:47:11.000Z,79.21
2022-12-25T22:50:08.438Z,79.27
2022-12-25T22:53:06.196Z,79.29
2022-12-25T22:56:03.624Z,79.30
2022-12-25T22:59:01.278Z,79.31
2022-12-25T23:01:58.816Z,79.33
2022-12-25T23:04:56.642Z,79.40
2022-12-25T23:07:54.299Z,79.38
2022-12-25T23:10:51.735Z,79.32
2022-12-25T23:14:07.445Z,79.34
2022-12-25T23:17:04.877Z,79.30
2022-12-25T23:20:20.627Z,79.30
2022-12-25T23:23:35.972Z,79.30
2022-12-25T23:26:33.393Z,79.22
2022-12-25T23:29:40.408Z,79.18
2022-12-25T23:32:37.842Z,79.16
2022-12-25T23:35:35.570Z,79.28
2022-12-25T23:38:33.003Z,79.28
2022-12-25T23:41:30.709Z,79.29
2022-12-25T23:44:28.134Z,79.29
2022-12-25T23:47:25.886Z,79.31
2022-12-25T23:50:23.317Z,79.34
2022-12-25T23:53:20.978Z,79.45
2022-12-25T23:56:18.591Z,79.57
2022-12-25T23:59:16.034Z,79.68
